createdAt,value
2024-03-16T00:00:13.068Z,10.80
2024-03-16T00:02:40.272Z,10.80
2024-03-16T00:05:07.705Z,10.80
2024-03-16T00:07:35.067Z,10.80
2024-03-16T00:10:02.765Z,10.80
2024-03-16T00:12:30.583Z,10.80
2024-03-16T00:14:58.326Z,10.80
2024-03-16T00:17:25.673Z,10.80
2024-03-16T00:19:52.928Z,10.70
2024-03-16T00:22:20.120Z,10.80
2024-03-16T00:24:47.411Z,10.80
2024-03-16T00:27:14.919Z,10.80
2024-03-16T00:29:42.503Z,10.80
2024-03-16T00:32:10.011Z,10.80
2024-03-16T00:34:37.455Z,10.70
2024-03-16T00:37:05.834Z,10.80
2024-03-16T00:39:33.557Z,10.70
2024-03-16T00:42:00.893Z,10.70
2024-03-16T00:44:32.143Z,10.60
2024-03-16T00:47:00.076Z,10.70
2024-03-16T00:49:27.310Z,10.60
2024-03-16T00:51:54.505Z,10.50
2024-03-16T00:54:21.811Z,10.50
2024-03-16T00:56:49.272Z,10.50
2024-03-16T00:59:17.166Z,10.50
2024-03-16T01:01:44.962Z,10.40
2024-03-16T01:04:12.573Z,10.50
2024-03-16T01:06:40.065Z,10.50
2024-03-16T01:09:07.902Z,10.50
2024-03-16T01:11:35.526Z,10.50
2024-03-16T01:14:02.796Z,10.60
2024-03-16T01:16:30.078Z,10.60
2024-03-16T01:18:57.390Z,10.60
2024-03-16T01:21:24.743Z,10.60
2024-03-16T01:23:52.203Z,10.60
2024-03-16T01:26:20.209Z,10.60
2024-03-16T01:28:48.357Z,10.60
2024-03-16T01:31:15.903Z,10.60
2024-03-16T01:33:43.433Z,10.60
2024-03-16T01:36:11.157Z,10.60
2024-03-16T01:38:38.427Z,10.60
2024-03-16T01:41:06.292Z,10.60
2024-03-16T01:43:33.685Z,10.50
2024-03-16T01:46:01.275Z,10.60
2024-03-16T01:48:28.689Z,10.60
2024-03-16T01:50:56.110Z,10.60
2024-03-16T01:53:23.413Z,10.50
2024-03-16T01:55:51.668Z,10.60
2024-03-16T01:58:18.951Z,10.50
2024-03-16T02:00:48.832Z,10.50
2024-03-16T02:03:16.756Z,10.40
2024-03-16T02:05:44.035Z,10.40
2024-03-16T02:08:12.785Z,10.40
2024-03-16T02:10:40.500Z,10.30
2024-03-16T02:13:08.098Z,10.30
2024-03-16T02:15:35.589Z,10.30
2024-03-16T02:18:03.426Z,10.30
2024-03-16T02:20:32.778Z,10.30
2024-03-16T02:23:00.096Z,10.30
2024-03-16T02:25:27.298Z,10.30
2024-03-16T02:27:54.594Z,10.20
2024-03-16T02:30:22.225Z,10.10
2024-03-16T02:32:49.909Z,10.10
2024-03-16T02:35:17.286Z,10.10
2024-03-16T02:37:44.513Z,10.10
2024-03-16T02:40:13.075Z,10.00
2024-03-16T02:42:44.210Z,10.00
2024-03-16T02:45:12.137Z,10.10
2024-03-16T02:47:39.760Z,10.00
2024-03-16T02:50:10.247Z,10.00
2024-03-16T02:52:40.809Z,10.00
2024-03-16T02:55:08.641Z,9.80
2024-03-16T02:57:36.139Z,9.90
2024-03-16T03:00:08.735Z,9.90
2024-03-16T03:02:36.116Z,10.00
2024-03-16T03:05:04.917Z,10.00
2024-03-16T03:07:32.156Z,10.00
2024-03-16T03:09:59.418Z,10.00
2024-03-16T03:12:26.694Z,10.00
2024-03-16T03:14:53.997Z,10.10
2024-03-16T03:17:21.246Z,10.10
2024-03-16T03:19:48.508Z,10.10
2024-03-16T03:22:15.673Z,10.20
2024-03-16T03:24:42.914Z,10.10
2024-03-16T03:27:10.641Z,10.20
2024-03-16T03:29:37.922Z,10.30
2024-03-16T03:32:05.543Z,10.30
2024-03-16T03:34:33.053Z,10.30
2024-03-16T03:37:00.478Z,10.40
2024-03-16T03:39:27.819Z,10.30
2024-03-16T03:41:55.469Z,10.40
2024-03-16T03:44:25.141Z,10.30
2024-03-16T03:46:52.998Z,10.30
2024-03-16T03:49:33.175Z,10.30
2024-03-16T03:52:04.920Z,10.30
2024-03-16T03:54:34.453Z,10.30
2024-03-16T03:57:01.851Z,10.30
2024-03-16T03:59:29.155Z,10.40
2024-03-16T04:01:56.499Z,10.30
2024-03-16T04:04:23.832Z,10.30
2024-03-16T04:06:51.256Z,10.30
2024-03-16T04:09:18.462Z,10.30
2024-03-16T04:11:45.681Z,10.30
2024-03-16T04:14:12.911Z,10.30
2024-03-16T04:16:40.181Z,10.20
2024-03-16T04:19:07.856Z,10.20
2024-03-16T04:21:35.188Z,10.20
2024-03-16T04:24:02.490Z,10.20
2024-03-16T04:26:29.800Z,10.20
2024-03-16T04:28:57.493Z,10.10
2024-03-16T04:31:24.780Z,10.10
2024-03-16T04:33:52.785Z,10.10
2024-03-16T04:36:20.083Z,10.00
2024-03-16T04:38:47.311Z,9.90
2024-03-16T04:41:14.573Z,9.90
2024-03-16T04:43:42.485Z,9.80
2024-03-16T04:46:09.814Z,9.80
2024-03-16T04:48:37.179Z,9.70
2024-03-16T04:51:04.793Z,9.70
2024-03-16T04:53:31.985Z,9.70
2024-03-16T04:55:59.976Z,9.70
2024-03-16T04:58:27.380Z,9.70
2024-03-16T05:00:54.707Z,9.70
2024-03-16T05:03:22.098Z,9.70
2024-03-16T05:05:52.547Z,9.70
2024-03-16T05:08:19.895Z,9.70
2024-03-16T05:10:53.026Z,9.70
2024-03-16T05:13:23.198Z,9.80
2024-03-16T05:15:50.427Z,9.80
2024-03-16T05:18:17.615Z,9.80
2024-03-16T05:20:46.006Z,9.80
2024-03-16T05:23:13.744Z,9.80
2024-03-16T05:25:46.740Z,9.80
2024-03-16T05:28:13.969Z,9.80
2024-03-16T05:30:41.301Z,9.80
2024-03-16T05:33:08.687Z,9.90
2024-03-16T05:35:35.854Z,9.90
2024-03-16T05:38:03.428Z,10.00
2024-03-16T05:40:30.674Z,10.00
2024-03-16T05:42:57.888Z,10.00
2024-03-16T05:45:25.153Z,10.10
2024-03-16T05:47:52.976Z,10.20
2024-03-16T05:50:20.290Z,10.20
2024-03-16T05:52:47.617Z,10.20
2024-03-16T05:55:16.831Z,10.30
2024-03-16T05:57:44.900Z,10.30
2024-03-16T06:00:15.977Z,10.30
2024-03-16T06:02:43.306Z,10.40
2024-03-16T06:05:11.167Z,10.40
2024-03-16T06:07:38.750Z,10.40
2024-03-16T06:10:10.850Z,10.40
2024-03-16T06:12:38.763Z,10.50
2024-03-16T06:15:09.961Z,10.50
2024-03-16T06:17:37.268Z,10.50
2024-03-16T06:20:06.442Z,10.50
2024-03-16T06:22:33.831Z,10.50
2024-03-16T06:25:01.145Z,10.60
2024-03-16T06:27:28.472Z,10.60
2024-03-16T06:29:56.849Z,10.60
2024-03-16T06:32:24.144Z,10.60
2024-03-16T06:34:51.635Z,10.60
2024-03-16T06:37:19.162Z,10.70
2024-03-16T06:39:47.400Z,10.70
2024-03-16T06:42:14.704Z,10.80
2024-03-16T06:44:41.918Z,10.80
2024-03-16T06:47:09.467Z,10.80
2024-03-16T06:49:37.041Z,10.90
2024-03-16T06:52:04.825Z,10.90
2024-03-16T06:54:32.197Z,10.90
2024-03-16T06:56:59.536Z,10.90
2024-03-16T06:59:27.934Z,10.90
2024-03-16T07:01:55.884Z,11.00
2024-03-16T07:04:23.884Z,11.00
2024-03-16T07:06:51.280Z,11.10
2024-03-16T07:09:19.717Z,11.10
2024-03-16T07:11:48.651Z,11.10
2024-03-16T07:14:16.299Z,11.10
2024-03-16T07:16:43.554Z,11.10
2024-03-16T07:19:11.234Z,11.10
2024-03-16T07:21:39.255Z,10.90
2024-03-16T07:24:08.260Z,10.80
2024-03-16T07:26:35.627Z,10.70
2024-03-16T07:29:07.895Z,10.60
2024-03-16T07:31:35.272Z,10.40
2024-03-16T07:34:04.816Z,10.30
2024-03-16T07:36:32.500Z,10.20
2024-03-16T07:38:59.796Z,10.10
2024-03-16T07:41:27.038Z,10.10
2024-03-16T07:43:54.211Z,10.00
2024-03-16T07:46:21.472Z,9.90
2024-03-16T07:48:48.752Z,9.80
2024-03-16T07:51:18.082Z,9.70
2024-03-16T07:53:45.454Z,9.60
2024-03-16T07:56:12.681Z,9.50
2024-03-16T07:58:39.813Z,9.50
2024-03-16T08:01:07.307Z,9.40
2024-03-16T08:03:35.078Z,9.20
2024-03-16T08:06:08.221Z,9.20
2024-03-16T08:08:35.611Z,9.10
2024-03-16T08:11:05.311Z,9.10
2024-03-16T08:13:32.670Z,9.10
2024-03-16T08:16:00.588Z,8.90
2024-03-16T08:18:28.053Z,8.50
2024-03-16T08:20:58.841Z,8.30
2024-03-16T08:23:29.422Z,8.10
2024-03-16T08:25:57.211Z,8.00
2024-03-16T08:28:24.486Z,7.80
2024-03-16T08:30:51.745Z,7.60
2024-03-16T08:33:19.012Z,7.60
2024-03-16T08:35:46.244Z,7.50
2024-03-16T08:38:13.802Z,7.50
2024-03-16T08:40:41.232Z,7.40
2024-03-16T08:43:08.783Z,7.30
2024-03-16T08:45:36.559Z,7.30
2024-03-16T08:48:04.123Z,7.30
2024-03-16T08:50:31.512Z,7.30
2024-03-16T08:52:58.770Z,7.20
2024-03-16T08:55:26.815Z,7.20
2024-03-16T08:57:54.307Z,7.10
2024-03-16T09:00:22.487Z,7.10
2024-03-16T09:02:51.729Z,7.10
2024-03-16T09:05:19.714Z,7.20
2024-03-16T09:07:46.917Z,7.20
2024-03-16T09:10:14.576Z,7.20
2024-03-16T09:12:41.977Z,7.30
2024-03-16T09:15:09.946Z,7.40
2024-03-16T09:17:37.736Z,7.40
2024-03-16T09:20:12.257Z,7.40
2024-03-16T09:22:39.907Z,7.30
2024-03-16T09:25:07.924Z,7.40
2024-03-16T09:27:36.234Z,7.80
2024-03-16T09:30:09.624Z,8.10
2024-03-16T09:32:38.014Z,8.20
2024-03-16T09:35:07.860Z,8.20
2024-03-16T09:37:35.178Z,8.10
2024-03-16T09:40:02.772Z,8.10
2024-03-16T09:42:32.168Z,7.90
